Nord Innovation — 3EYC5 — position and weather

sailwx.info

Track history (hours):
 
Tides and Currents Weather Stations Pressure Air Temp Water Temp Dewpoint Dewpoint Depression Visibility Wind Speed Wind Dir Waves Ship Positions

Nord Innovation

Last reported at 2018-Jan-11 21:47 UTC. Time now 2018-Jan-20 05:32 UTC.
Position N 30°29' E 121°43'.
Warning: this ship's position is 8 days out of date.

Length 180 m; draft 7.8 m.

Type: Ship. MMSI: 370756000.

Date/timePositionNaut miles runAvg speedWind from/ knotsBaromVisibWave heightAir tempDewpointWater temp
2018-Jan-11 21:47N 30°29' E 121°43'411.1
2018-Jan-11 21:25N 30°30' E 121°47'1211.2
2018-Jan-11 20:24N 30°32' E 122°01'4 8.8
2018-Jan-11 19:58N 30°32' E 122°05'11 9.7
2018-Jan-11 18:47N 30°41' E 122°14'512.8
2018-Jan-11 18:24N 30°45' E 122°16'410.9
2018-Jan-11 18:00N 30°49' E 122°18'510.3
2018-Jan-11 17:30N 30°51' E 122°24'4 8.1
2018-Jan-11 16:57N 30°51' E 122°29'4 8.9
2018-Jan-11 16:29N 30°53' E 122°33'  
2018-Jan-02 19:38N 38°28' E 121°29'210.1
2018-Jan-02 19:26N 38°27' E 121°32'1211.9
2018-Jan-02 18:28N 38°25' E 121°46'  
Track history (hours):
 
Tides and Currents Weather Stations Pressure Air Temp Water Temp Dewpoint Dewpoint Depression Visibility Wind Speed Wind Dir Waves Ship Positions

Nord Innovation

Last reported at 2018-Jan-11 21:47 UTC. Time now 2018-Jan-20 05:32 UTC.
Position N 30°29' E 121°43'.
Warning: this ship's position is 8 days out of date.

Length 180 m; draft 7.8 m.

Type: Ship. MMSI: 370756000.

Date/timePositionNaut miles runAvg speedWind from/ knotsBaromVisibWave heightAir tempDewpointWater temp
2018-Jan-11 21:47N 30°29' E 121°43'411.1
2018-Jan-11 21:25N 30°30' E 121°47'1211.2
2018-Jan-11 20:24N 30°32' E 122°01'4 8.8
2018-Jan-11 19:58N 30°32' E 122°05'11 9.7
2018-Jan-11 18:47N 30°41' E 122°14'512.8
2018-Jan-11 18:24N 30°45' E 122°16'410.9
2018-Jan-11 18:00N 30°49' E 122°18'510.3
2018-Jan-11 17:30N 30°51' E 122°24'4 8.1
2018-Jan-11 16:57N 30°51' E 122°29'4 8.9
2018-Jan-11 16:29N 30°53' E 122°33'  
2018-Jan-02 19:38N 38°28' E 121°29'210.1
2018-Jan-02 19:26N 38°27' E 121°32'1211.9
2018-Jan-02 18:28N 38°25' E 121°46'  

Dump ship's entire track history